Time;durP1;ratioP1;P1;durP2;ratioP2;P2;SDS_P1;SDS_P2;PMS_P1;PMS_P2;Temp;Humidity;BMP_temperature;BMP_pressure;BME280_temperature;BME280_humidity;BME280_pressure;Samples;Min_cycle;Max_cycle;Signal;HPM_P1;HPM_P2
2023/02/21 02:17:26;;;;;;;92.95;53.38;;;11.50;1.00;;;;;;5104932;28;20153;-65
2023/02/21 02:20:39;;;;;;;92.90;55.17;;;11.50;1.00;;;;;;5108201;28;20100;-65
2023/02/21 02:23:33;;;;;;;92.25;55.17;;;11.40;1.00;;;;;;5108430;28;20047;-65
2023/02/21 02:26:29;;;;;;;91.32;54.33;;;11.40;1.00;;;;;;5100453;28;20514;-65
2023/02/21 02:29:14;;;;;;;91.60;56.05;;;11.40;1.00;;;;;;5091469;28;20537;-65
2023/02/21 02:31:57;;;;;;;92.32;56.40;;;11.40;1.00;;;;;;5097200;28;20106;-65
2023/02/21 02:34:38;;;;;;;94.38;57.15;;;11.40;1.00;;;;;;5103503;28;20426;-65
2023/02/21 02:37:41;;;;;;;92.30;56.42;;;11.40;1.00;;;;;;5112171;28;20485;-65
2023/02/21 02:40:17;;;;;;;96.63;57.40;;;11.40;1.00;;;;;;5101980;28;20113;-65
2023/02/21 02:43:02;;;;;;;94.30;56.75;;;11.40;1.00;;;;;;5112078;28;20485;-65
2023/02/21 02:45:57;;;;;;;96.00;58.42;;;11.40;1.00;;;;;;5112207;28;20051;-65
2023/02/21 02:48:33;;;;;;;93.85;55.30;;;11.40;1.00;;;;;;5099606;28;20023;-65
2023/02/21 02:51:02;;;;;;;97.18;56.80;;;11.40;1.00;;;;;;5111786;28;20058;-65
2023/02/21 02:53:29;;;;;;;91.30;55.95;;;11.30;1.00;;;;;;5112128;28;20024;-65
2023/02/21 02:56:00;;;;;;;92.45;54.38;;;11.30;1.00;;;;;;5112089;28;20039;-65
2023/02/21 02:58:29;;;;;;;98.13;58.22;;;11.30;1.00;;;;;;5112221;28;20141;-65
2023/02/21 03:01:07;;;;;;;94.85;57.30;;;11.30;1.00;;;;;;5111785;28;20028;-65
2023/02/21 03:03:57;;;;;;;95.45;57.65;;;11.20;1.00;;;;;;5097695;28;20022;-66
2023/02/21 03:06:49;;;;;;;99.75;58.33;;;11.30;1.00;;;;;;5112161;28;20153;-65
2023/02/21 03:09:26;;;;;;;99.78;58.35;;;11.20;1.00;;;;;;5113434;28;20043;-65
2023/02/21 03:12:22;;;;;;;101.15;59.58;;;11.10;1.00;;;;;;5115605;28;20100;-65
2023/02/21 03:15:24;;;;;;;96.63;58.70;;;11.20;1.00;;;;;;5116005;28;20127;-65
2023/02/21 03:17:59;;;;;;;99.50;58.40;;;11.10;1.00;;;;;;5111480;28;20048;-66
2023/02/21 03:20:27;;;;;;;100.57;58.35;;;11.10;1.00;;;;;;5115382;28;20460;-66
2023/02/21 03:22:54;;;;;;;99.20;59.90;;;11.10;1.00;;;;;;5115423;28;20462;-65
2023/02/21 03:25:21;;;;;;;94.88;60.08;;;11.10;1.00;;;;;;5115244;28;20016;-65
2023/02/21 03:27:48;;;;;;;97.57;59.85;;;11.10;1.00;;;;;;5115540;28;20510;-65
2023/02/21 03:30:14;;;;;;;98.78;59.15;;;11.10;1.00;;;;;;5115351;28;20432;-65
2023/02/21 03:32:47;;;;;;;99.57;59.15;;;11.10;1.00;;;;;;5115316;28;20106;-65
2023/02/21 03:35:14;;;;;;;95.18;58.97;;;11.20;1.00;;;;;;5115322;28;20438;-65
2023/02/21 03:37:48;;;;;;;97.15;58.42;;;11.00;1.00;;;;;;5115152;28;20066;-65
2023/02/21 03:40:22;;;;;;;95.60;58.65;;;10.90;1.00;;;;;;5115366;28;20063;-66
2023/02/21 03:42:49;;;;;;;96.95;58.88;;;10.90;1.00;;;;;;5101405;28;20020;-65
2023/02/21 03:45:15;;;;;;;96.38;58.10;;;11.00;1.00;;;;;;5115195;28;20036;-65
2023/02/21 03:47:41;;;;;;;95.30;57.75;;;11.00;1.00;;;;;;5109066;28;20504;-65
2023/02/21 03:50:07;;;;;;;97.57;58.47;;;11.10;1.00;;;;;;5098261;28;20040;-65
2023/02/21 03:52:33;;;;;;;90.25;57.60;;;11.10;1.00;;;;;;5111217;28;20020;-65
2023/02/21 03:54:58;;;;;;;93.15;57.50;;;11.00;1.00;;;;;;5114783;28;20081;-65
2023/02/21 03:57:24;;;;;;;93.07;57.35;;;11.00;1.00;;;;;;5114615;27;20054;-65
2023/02/21 03:59:51;;;;;;;94.50;56.92;;;11.00;1.00;;;;;;5115003;28;20373;-65
2023/02/21 04:02:18;;;;;;;93.10;57.63;;;11.00;1.00;;;;;;5114720;28;20035;-65
2023/02/21 04:04:47;;;;;;;100.40;58.90;;;11.00;1.00;;;;;;5114935;28;20034;-65
2023/02/21 04:07:18;;;;;;;91.10;57.17;;;11.00;1.00;;;;;;5114622;28;20045;-66
2023/02/21 04:09:44;;;;;;;98.53;60.17;;;11.00;1.00;;;;;;5113161;28;20491;-65
2023/02/21 04:12:10;;;;;;;95.72;58.33;;;11.10;1.00;;;;;;5114429;28;20016;-65
2023/02/21 04:21:20;;;;;;;97.47;57.55;;;11.10;1.00;;;;;;5107456;28;20035;-65
2023/02/21 04:23:46;;;;;;;96.68;58.28;;;11.10;1.00;;;;;;5114529;28;20023;-65
2023/02/21 04:26:11;;;;;;;91.65;57.17;;;11.00;1.00;;;;;;5114247;28;20023;-65
2023/02/21 04:28:37;;;;;;;96.88;57.88;;;11.00;1.00;;;;;;5114156;28;20070;-65
2023/02/21 04:31:03;;;;;;;94.22;58.17;;;10.90;1.00;;;;;;5114276;28;20019;-65
2023/02/21 04:33:28;;;;;;;91.97;57.92;;;10.90;1.00;;;;;;5113995;28;20047;-65
2023/02/21 04:35:54;;;;;;;98.78;59.97;;;10.90;1.00;;;;;;5112598;28;20392;-65
2023/02/21 04:38:19;;;;;;;97.88;59.90;;;10.80;1.00;;;;;;5114454;28;20024;-65
2023/02/21 04:40:45;;;;;;;94.65;57.03;;;10.90;1.00;;;;;;5114019;28;20056;-66
2023/02/21 04:43:11;;;;;;;98.07;58.88;;;10.90;1.00;;;;;;5113639;28;20046;-66
2023/02/21 04:45:36;;;;;;;101.20;58.72;;;10.80;1.00;;;;;;5114075;28;20027;-65
2023/02/21 04:48:02;;;;;;;96.18;59.70;;;10.80;1.00;;;;;;5113661;28;20032;-65
2023/02/21 04:50:27;;;;;;;91.68;56.72;;;10.70;1.00;;;;;;5113623;28;20151;-65
2023/02/21 04:52:53;;;;;;;96.18;58.08;;;10.80;1.00;;;;;;5113612;28;20089;-65
2023/02/21 04:55:19;;;;;;;99.50;60.22;;;10.70;1.00;;;;;;5113801;28;20531;-65
2023/02/21 04:57:44;;;;;;;95.20;57.55;;;10.80;1.00;;;;;;5113715;28;20032;-65
2023/02/21 05:00:11;;;;;;;90.97;56.45;;;10.70;1.00;;;;;;5113451;28;20027;-65
2023/02/21 05:02:37;;;;;;;90.65;55.05;;;10.70;1.00;;;;;;5113530;28;20019;-65
2023/02/21 05:05:02;;;;;;;88.90;56.70;;;10.70;1.00;;;;;;5112140;28;20030;-65
2023/02/21 05:07:28;;;;;;;95.63;57.55;;;10.70;1.00;;;;;;5113654;28;20043;-65
2023/02/21 05:09:54;;;;;;;98.97;58.67;;;10.70;1.00;;;;;;5113216;28;20027;-65
2023/02/21 05:12:20;;;;;;;93.78;56.13;;;10.60;1.00;;;;;;5113308;28;20020;-65
2023/02/21 05:14:45;;;;;;;97.28;57.78;;;10.70;1.00;;;;;;5113425;28;20019;-65
2023/02/21 05:17:12;;;;;;;94.43;56.97;;;10.60;1.00;;;;;;5113401;28;20069;-65
2023/02/21 05:19:38;;;;;;;101.53;58.47;;;10.60;1.00;;;;;;5113041;28;20031;-65
2023/02/21 05:22:06;;;;;;;94.63;57.55;;;10.60;1.00;;;;;;5113440;28;20114;-66
2023/02/21 05:24:32;;;;;;;97.18;56.13;;;10.60;1.00;;;;;;5113235;28;20023;-65
2023/02/21 05:26:58;;;;;;;89.15;56.67;;;10.60;1.00;;;;;;5113277;28;20104;-65
2023/02/21 05:29:25;;;;;;;97.35;56.78;;;10.50;1.00;;;;;;5113547;28;20423;-65
2023/02/21 05:31:51;;;;;;;86.35;53.22;;;10.50;1.00;;;;;;5112580;28;20024;-65
2023/02/21 05:34:18;;;;;;;96.10;56.47;;;10.50;1.00;;;;;;5113292;28;20555;-65
2023/02/21 05:36:44;;;;;;;91.72;55.28;;;10.50;1.00;;;;;;5100431;28;20477;-65
2023/02/21 05:39:10;;;;;;;92.20;54.00;;;10.50;1.00;;;;;;5110925;28;20027;-65
2023/02/21 05:41:36;;;;;;;91.82;54.90;;;10.50;1.00;;;;;;5112737;28;20028;-65
2023/02/21 05:44:03;;;;;;;90.15;54.65;;;10.50;1.00;;;;;;5112805;28;20032;-66
2023/02/21 05:46:34;;;;;;;101.25;57.05;;;10.50;1.00;;;;;;5112891;28;20024;-65
2023/02/21 05:49:02;;;;;;;90.97;55.42;;;10.50;1.00;;;;;;5112931;28;20028;-65
2023/02/21 05:51:37;;;;;;;87.38;53.95;;;10.50;1.00;;;;;;5112635;28;20032;-65
2023/02/21 05:57:06;;;;;;;90.95;53.28;;;10.50;1.00;;;;;;5105465;28;19964;-65
2023/02/21 05:59:32;;;;;;;87.78;52.80;;;10.50;1.00;;;;;;5112352;28;20035;-65
2023/02/21 06:02:00;;;;;;;93.75;53.95;;;10.50;1.00;;;;;;5112556;28;20027;-65
2023/02/21 06:04:26;;;;;;;88.72;52.35;;;10.60;1.00;;;;;;5111177;28;20053;-65
2023/02/21 06:06:51;;;;;;;86.38;52.78;;;10.50;1.00;;;;;;5112703;28;20074;-65
2023/02/21 06:09:19;;;;;;;86.65;51.47;;;10.50;1.00;;;;;;5111152;28;20081;-65
2023/02/21 06:11:44;;;;;;;84.07;50.42;;;10.50;1.00;;;;;;5112338;28;20023;-65
2023/02/21 06:14:16;;;;;;;84.50;53.22;;;10.50;1.00;;;;;;5111300;28;20440;-65
2023/02/21 06:16:43;;;;;;;84.20;50.40;;;10.50;1.00;;;;;;5112223;28;20042;-65
2023/02/21 06:19:11;;;;;;;72.55;47.50;;;10.50;1.00;;;;;;5112866;28;20031;-65
2023/02/21 06:21:37;;;;;;;55.92;39.38;;;10.50;1.00;;;;;;5112510;28;20421;-65
2023/02/21 06:24:04;;;;;;;53.03;34.63;;;10.50;1.00;;;;;;5112439;28;20024;-64
2023/02/21 06:26:29;;;;;;;48.50;33.83;;;10.40;1.00;;;;;;5112315;28;20593;-64
2023/02/21 06:28:55;;;;;;;43.25;31.42;;;10.50;1.00;;;;;;5112585;28;20045;-65
2023/02/21 06:31:21;;;;;;;48.10;33.03;;;10.40;1.00;;;;;;5112340;28;20028;-65
2023/02/21 06:33:47;;;;;;;45.15;31.40;;;10.40;1.00;;;;;;5110877;28;20160;-65
2023/02/21 06:36:19;;;;;;;39.33;29.80;;;10.30;1.00;;;;;;5112437;28;20123;-65
2023/02/21 06:38:47;;;;;;;41.65;29.85;;;10.30;1.00;;;;;;5112422;28;20040;-64
2023/02/21 06:41:15;;;;;;;46.38;29.95;;;10.20;1.00;;;;;;5112097;28;20015;-65
2023/02/21 06:43:41;;;;;;;42.33;30.27;;;10.20;1.00;;;;;;5112858;28;20023;-65
2023/02/21 06:46:06;;;;;;;39.45;30.52;;;10.20;1.00;;;;;;5116275;28;20533;-65
2023/02/21 06:48:32;;;;;;;43.67;31.10;;;10.10;1.00;;;;;;5104515;28;20452;-64
2023/02/21 06:50:58;;;;;;;44.77;31.67;;;10.20;1.00;;;;;;5109880;28;20055;-64
2023/02/21 06:53:29;;;;;;;43.10;32.08;;;10.20;1.00;;;;;;5105076;28;20051;-65
2023/02/21 06:55:55;;;;;;;39.40;29.95;;;10.20;1.00;;;;;;5115993;28;20043;-65
2023/02/21 06:58:21;;;;;;;39.20;29.73;;;10.20;1.00;;;;;;5115945;28;20023;-65
2023/02/21 07:00:46;;;;;;;41.67;29.80;;;10.20;1.00;;;;;;5115980;28;20051;-66
2023/02/21 07:03:12;;;;;;;43.72;31.15;;;10.00;1.00;;;;;;5114662;28;20120;-66
2023/02/21 07:05:37;;;;;;;43.33;29.60;;;10.00;1.00;;;;;;5116014;28;20387;-65
2023/02/21 07:08:03;;;;;;;40.75;29.48;;;10.10;1.00;;;;;;5116199;28;20032;-65
2023/02/21 07:10:29;;;;;;;39.80;29.27;;;10.00;1.00;;;;;;5115703;28;20105;-65
2023/02/21 07:12:55;;;;;;;41.00;29.70;;;10.00;1.00;;;;;;5114212;28;20038;-64
2023/02/21 07:15:21;;;;;;;41.47;29.57;;;10.10;1.00;;;;;;5115961;28;20434;-64
2023/02/21 07:17:47;;;;;;;41.65;29.33;;;10.10;1.00;;;;;;5107550;28;20111;-64
2023/02/21 07:20:12;;;;;;;44.25;30.88;;;10.00;1.00;;;;;;5115581;28;20210;-64
2023/02/21 07:22:38;;;;;;;43.10;30.02;;;10.00;1.00;;;;;;5115675;28;20498;-64
2023/02/21 07:25:04;;;;;;;39.95;30.10;;;10.00;1.00;;;;;;5115661;28;20028;-64
2023/02/21 07:27:30;;;;;;;43.75;31.27;;;10.00;1.00;;;;;;5115585;28;20059;-64
2023/02/21 07:29:55;;;;;;;56.97;35.00;;;10.00;1.00;;;;;;5115380;28;20488;-64
2023/02/21 07:32:21;;;;;;;49.13;34.40;;;10.00;1.00;;;;;;5115622;28;20035;-64
2023/02/21 07:34:47;;;;;;;45.03;33.80;;;9.90;1.00;;;;;;5115166;28;20111;-64
2023/02/21 07:37:13;;;;;;;52.70;34.05;;;10.10;1.00;;;;;;5115172;28;20040;-64
2023/02/21 07:39:39;;;;;;;54.30;37.55;;;10.00;1.00;;;;;;5115209;28;20465;-64
2023/02/21 07:42:06;;;;;;;59.67;37.03;;;10.20;1.00;;;;;;5114961;28;20076;-64
2023/02/21 07:44:32;;;;;;;61.13;40.53;;;10.10;1.00;;;;;;5114981;28;20034;-65
2023/02/21 07:46:58;;;;;;;64.35;41.03;;;10.00;1.00;;;;;;5115009;28;20090;-64
2023/02/21 07:49:24;;;;;;;67.53;41.42;;;10.20;1.00;;;;;;5114724;28;20081;-64
2023/02/21 07:51:50;;;;;;;59.73;38.67;;;10.10;1.00;;;;;;5113757;28;20108;-64
2023/02/21 07:54:16;;;;;;;64.35;40.42;;;10.10;1.00;;;;;;5114561;28;20077;-65
2023/02/21 07:56:44;;;;;;;66.53;41.05;;;10.20;1.00;;;;;;5114874;28;20039;-65
2023/02/21 07:59:10;;;;;;;64.50;40.03;;;10.10;1.00;;;;;;5115047;28;20413;-64
2023/02/21 08:01:35;;;;;;;60.38;40.47;;;10.20;1.00;;;;;;5115011;28;20047;-64
2023/02/21 08:04:01;;;;;;;67.50;40.83;;;10.20;1.00;;;;;;5114704;28;20034;-60
2023/02/21 08:06:26;;;;;;;63.60;41.30;;;10.20;1.00;;;;;;5114378;28;20389;-63
2023/02/21 08:08:52;;;;;;;61.15;41.72;;;10.30;1.00;;;;;;5114317;28;20031;-62
2023/02/21 08:11:18;;;;;;;69.07;41.78;;;10.30;1.00;;;;;;5114139;28;20024;-60
2023/02/21 08:13:43;;;;;;;68.05;42.13;;;10.30;1.00;;;;;;5114132;27;20023;-59
2023/02/21 08:16:09;;;;;;;70.05;42.38;;;10.40;1.00;;;;;;5112602;28;20089;-61
2023/02/21 08:18:34;;;;;;;65.55;42.47;;;10.40;1.00;;;;;;5114029;28;20412;-62
2023/02/21 08:21:00;;;;;;;64.15;40.40;;;10.40;1.00;;;;;;5114252;28;20032;-60
2023/02/21 08:23:26;;;;;;;58.80;39.28;;;10.30;1.00;;;;;;5114177;28;20036;-61
2023/02/21 08:25:52;;;;;;;60.72;39.97;;;10.40;1.00;;;;;;5114221;28;20524;-65
2023/02/21 08:28:17;;;;;;;59.80;39.22;;;10.30;1.00;;;;;;5099979;28;20084;-63
2023/02/21 08:30:43;;;;;;;60.75;40.13;;;10.30;1.00;;;;;;5114361;28;20477;-68
2023/02/21 08:33:09;;;;;;;62.83;39.30;;;10.30;1.00;;;;;;5114603;28;20322;-69
2023/02/21 08:35:34;;;;;;;58.38;39.20;;;10.30;1.00;;;;;;5103681;28;20032;-61
2023/02/21 08:38:03;;;;;;;59.70;38.67;;;10.30;1.00;;;;;;5113729;28;20024;-60
2023/02/21 08:40:30;;;;;;;58.30;38.75;;;10.40;1.00;;;;;;5112762;28;20482;-60
2023/02/21 08:42:57;;;;;;;60.25;39.58;;;10.40;1.00;;;;;;5111554;28;20384;-60
2023/02/21 08:45:25;;;;;;;65.68;40.40;;;10.40;1.00;;;;;;5111413;28;20023;-60
2023/02/21 08:47:51;;;;;;;59.85;40.22;;;10.50;1.00;;;;;;5114022;28;20028;-60
2023/02/21 08:50:19;;;;;;;60.53;40.17;;;10.60;1.00;;;;;;5111722;28;20035;-60
2023/02/21 08:52:50;;;;;;;57.20;40.70;;;10.60;1.00;;;;;;5099354;28;20033;-60
2023/02/21 08:55:16;;;;;;;65.28;43.25;;;10.60;1.00;;;;;;5111163;28;20088;-62
2023/02/21 08:57:42;;;;;;;66.90;42.08;;;10.60;1.00;;;;;;5111959;28;20370;-63
2023/02/21 09:00:12;;;;;;;61.40;41.55;;;10.60;1.00;;;;;;5111949;28;20045;-63
2023/02/21 09:02:41;;;;;;;70.47;43.88;;;10.60;1.00;;;;;;5112211;28;20031;-59
2023/02/21 09:05:10;;;;;;;67.57;43.30;;;10.70;1.00;;;;;;5113381;28;20024;-62
2023/02/21 09:07:35;;;;;;;67.00;42.15;;;10.80;1.00;;;;;;5110450;28;21487;-51
2023/02/21 09:10:01;;;;;;;63.72;43.40;;;10.90;1.00;;;;;;5111140;28;20107;-54
2023/02/21 09:12:27;;;;;;;66.22;43.90;;;11.10;1.00;;;;;;5109366;28;20119;-58
2023/02/21 09:14:52;;;;;;;67.00;43.22;;;11.10;1.00;;;;;;5113400;28;20484;-57
2023/02/21 09:17:18;;;;;;;67.63;43.05;;;11.30;1.00;;;;;;5104758;28;20036;-58
2023/02/21 09:19:44;;;;;;;72.45;45.80;;;11.20;1.00;;;;;;5110436;28;20020;-62
2023/02/21 09:22:10;;;;;;;73.35;45.85;;;11.30;1.00;;;;;;5111393;28;20564;-54
2023/02/21 09:24:37;;;;;;;78.13;46.78;;;11.30;1.00;;;;;;5111864;28;20020;-63
2023/02/21 09:27:02;;;;;;;68.55;45.28;;;11.30;1.00;;;;;;5102378;28;20031;-58
2023/02/21 09:29:31;;;;;;;64.65;45.13;;;11.30;1.00;;;;;;5109433;28;20024;-58
2023/02/21 09:31:57;;;;;;;69.13;43.53;;;11.40;1.00;;;;;;5110509;28;20034;-58
2023/02/21 09:34:23;;;;;;;67.70;45.47;;;11.50;1.00;;;;;;5112151;28;20023;-58
2023/02/21 09:36:53;;;;;;;69.65;44.65;;;11.50;1.00;;;;;;5112393;28;20244;-58
2023/02/21 09:39:20;;;;;;;63.28;43.72;;;11.70;1.00;;;;;;5108000;28;20341;-58
2023/02/21 09:41:46;;;;;;;57.95;41.72;;;11.80;1.00;;;;;;5107566;28;20027;-59
2023/02/21 09:44:22;;;;;;;59.72;42.00;;;11.90;1.00;;;;;;5110131;28;20039;-58
2023/02/21 09:47:09;;;;;;;59.55;43.00;;;11.90;1.00;;;;;;5109763;28;20126;-59
2023/02/21 09:49:39;;;;;;;59.85;42.10;;;11.90;1.00;;;;;;5107720;28;20071;-58
2023/02/21 09:52:11;;;;;;;60.83;40.88;;;11.80;1.00;;;;;;5103272;28;20038;-58
2023/02/21 09:54:42;;;;;;;60.28;42.33;;;11.80;1.00;;;;;;5108573;28;20035;-58
2023/02/21 09:57:13;;;;;;;60.45;41.65;;;11.90;1.00;;;;;;5107176;28;20039;-58
2023/02/21 09:59:38;;;;;;;60.13;40.70;;;12.00;1.00;;;;;;5108653;28;20165;-52
2023/02/21 10:02:12;;;;;;;58.45;41.72;;;12.20;1.00;;;;;;5108361;28;20118;-56
2023/02/21 10:05:01;;;;;;;56.80;40.78;;;12.30;1.00;;;;;;5107389;28;20096;-58
2023/02/21 10:08:04;;;;;;;58.45;40.13;;;12.50;1.00;;;;;;5107422;28;20039;-59
2023/02/21 10:10:42;;;;;;;63.33;43.05;;;12.40;1.00;;;;;;5071396;28;20125;-58
2023/02/21 10:13:40;;;;;;;65.38;43.35;;;12.20;1.00;;;;;;5107008;28;20028;-58
2023/02/21 10:16:15;;;;;;;63.97;44.97;;;12.30;1.00;;;;;;5097738;28;20044;-58
2023/02/21 10:19:02;;;;;;;63.90;45.22;;;12.40;1.00;;;;;;5112942;28;20023;-59
2023/02/21 10:21:40;;;;;;;68.85;44.00;;;12.30;1.00;;;;;;5113901;28;20248;-58
2023/02/21 10:24:20;;;;;;;66.85;44.13;;;12.50;1.00;;;;;;5105941;28;20099;-56
2023/02/21 10:26:58;;;;;;;65.00;45.42;;;12.70;1.00;;;;;;5115474;28;20050;-58
2023/02/21 10:29:37;;;;;;;59.80;43.63;;;12.80;1.00;;;;;;5112683;27;20019;-61
2023/02/21 10:32:03;;;;;;;67.75;45.92;;;12.80;1.00;;;;;;5112226;27;20110;-60
2023/02/21 10:34:31;;;;;;;65.05;45.03;;;12.80;1.00;;;;;;5116002;27;20115;-60
2023/02/21 10:37:33;;;;;;;69.60;44.83;;;12.80;1.00;;;;;;5115288;27;20032;-68
2023/02/21 10:40:35;;;;;;;64.43;44.33;;;12.90;1.00;;;;;;5113831;28;20028;-60
2023/02/21 10:43:15;;;;;;;69.97;47.72;;;13.00;1.00;;;;;;5116341;27;20489;-59
2023/02/21 10:45:58;;;;;;;72.13;49.55;;;13.00;1.00;;;;;;5103095;28;20028;-60
2023/02/21 10:48:29;;;;;;;67.95;49.30;;;13.00;1.00;;;;;;5117011;28;20031;-61
2023/02/21 10:51:06;;;;;;;71.15;47.28;;;13.20;1.00;;;;;;5118796;27;20054;-63
2023/02/21 10:53:36;;;;;;;67.50;46.63;;;13.30;1.00;;;;;;5118069;28;20020;-61
2023/02/21 10:56:14;;;;;;;67.90;47.05;;;13.50;1.00;;;;;;5118849;27;20131;-61
2023/02/21 10:59:04;;;;;;;66.97;45.40;;;13.70;1.00;;;;;;5111520;28;20024;-61
2023/02/21 11:01:38;;;;;;;70.18;48.50;;;13.70;1.00;;;;;;5119660;28;20032;-63
2023/02/21 11:04:18;;;;;;;70.13;45.97;;;13.60;1.00;;;;;;5118492;27;20100;-62
2023/02/21 11:06:48;;;;;;;67.72;48.05;;;13.50;1.00;;;;;;5104841;27;20028;-61
2023/02/21 11:09:39;;;;;;;69.20;48.20;;;13.50;1.00;;;;;;5118644;27;20046;-61
2023/02/21 11:12:17;;;;;;;66.03;47.08;;;13.60;1.00;;;;;;5110022;27;20108;-61
2023/02/21 11:15:01;;;;;;;70.15;46.78;;;13.80;1.00;;;;;;5116901;27;20039;-61
2023/02/21 11:17:28;;;;;;;67.65;47.38;;;13.80;1.00;;;;;;5117913;27;20032;-60
2023/02/21 11:20:06;;;;;;;71.22;48.10;;;13.70;1.00;;;;;;5116490;27;20016;-59
2023/02/21 11:22:42;;;;;;;74.53;49.95;;;13.70;1.00;;;;;;5114899;27;20023;-59
2023/02/21 11:25:11;;;;;;;75.22;50.30;;;13.60;1.00;;;;;;5114999;28;20490;-59
2023/02/21 11:27:38;;;;;;;75.30;48.95;;;13.50;1.00;;;;;;5117777;27;20032;-59
2023/02/21 11:30:15;;;;;;;71.78;49.17;;;13.60;1.00;;;;;;5108841;27;20109;-60
2023/02/21 11:32:44;;;;;;;70.03;47.50;;;13.60;1.00;;;;;;5109617;28;20038;-63
2023/02/21 11:35:19;;;;;;;65.88;44.90;;;13.70;1.00;;;;;;5107680;28;20027;-61
2023/02/21 11:37:54;;;;;;;66.88;47.15;;;13.70;1.00;;;;;;5102483;28;20035;-62
2023/02/21 11:40:50;;;;;;;69.55;48.08;;;13.80;1.00;;;;;;5115112;28;20483;-62
2023/02/21 11:43:26;;;;;;;68.65;46.72;;;13.80;1.00;;;;;;5100744;28;20042;-60
2023/02/21 11:46:16;;;;;;;64.45;45.10;;;13.80;1.00;;;;;;5115010;28;20031;-59
2023/02/21 11:48:55;;;;;;;58.42;40.83;;;13.80;1.00;;;;;;5112196;28;20049;-59
2023/02/21 11:51:36;;;;;;;57.58;41.10;;;13.90;1.00;;;;;;5100821;28;20052;-60
2023/02/21 11:54:04;;;;;;;57.78;36.92;;;14.00;1.00;;;;;;5114536;28;20031;-59
2023/02/21 11:57:03;;;;;;;46.22;34.67;;;14.10;1.00;;;;;;5112533;28;20183;-59
2023/02/21 12:00:17;;;;;;;49.90;33.47;;;14.10;1.00;;;;;;5111495;28;20039;-60
2023/02/21 12:02:42;;;;;;;43.42;30.88;;;14.10;1.00;;;;;;5101548;28;20166;-64
2023/02/21 12:05:37;;;;;;;45.90;31.52;;;14.20;1.00;;;;;;5114703;28;20500;-62
2023/02/21 12:08:17;;;;;;;40.70;28.20;;;14.30;1.00;;;;;;5113089;28;20024;-61
2023/02/21 12:11:10;;;;;;;34.40;25.45;;;14.40;1.00;;;;;;5114357;28;20039;-61
2023/02/21 12:13:52;;;;;;;37.22;26.88;;;14.40;1.00;;;;;;5113961;28;20035;-64
2023/02/21 12:16:41;;;;;;;39.88;26.85;;;14.60;1.00;;;;;;5114720;28;20039;-63
2023/02/21 12:19:10;;;;;;;33.92;24.70;;;14.60;1.00;;;;;;5107437;28;20023;-65
2023/02/21 12:22:01;;;;;;;35.05;23.63;;;14.70;1.00;;;;;;5114667;28;20081;-65
2023/02/21 12:24:39;;;;;;;38.70;26.40;;;14.80;1.00;;;;;;5098989;27;20089;-62
2023/02/21 12:27:14;;;;;;;36.08;26.85;;;14.90;1.00;;;;;;5112869;28;20484;-66
2023/02/21 12:30:02;;;;;;;40.53;28.67;;;15.00;1.00;;;;;;5115362;28;20034;-66
2023/02/21 12:32:34;;;;;;;35.08;24.80;;;15.40;1.00;;;;;;5101473;28;20034;-59
2023/02/21 12:35:03;;;;;;;36.42;24.98;;;15.50;1.00;;;;;;5108380;28;20465;-70
2023/02/21 12:37:51;;;;;;;32.45;23.05;;;15.50;1.00;;;;;;5101730;28;20053;-52
2023/02/21 12:40:30;;;;;;;32.20;23.45;;;15.80;1.00;;;;;;5111827;28;20045;-53
2023/02/21 12:43:25;;;;;;;30.83;23.92;;;15.90;1.00;;;;;;5108730;28;20085;-55
2023/02/21 12:45:59;;;;;;;32.08;24.27;;;16.00;1.00;;;;;;5110008;28;20482;-55
2023/02/21 12:49:01;;;;;;;36.47;25.42;;;16.00;1.00;;;;;;5111902;28;20122;-52
2023/02/21 12:51:41;;;;;;;37.67;26.70;;;15.90;1.00;;;;;;5100344;28;20051;-53
2023/02/21 12:54:11;;;;;;;34.25;22.85;;;16.10;1.00;;;;;;5112028;28;20057;-51
2023/02/21 12:56:52;;;;;;;27.05;21.35;;;16.20;1.00;;;;;;5113699;28;20036;-52
2023/02/21 12:59:26;;;;;;;28.30;21.25;;;16.20;1.00;;;;;;5101742;28;20445;-54
2023/02/21 13:01:57;;;;;;;29.70;20.90;;;16.10;1.00;;;;;;5103039;28;20081;-52
2023/02/21 13:04:31;;;;;;;28.52;20.77;;;16.10;1.00;;;;;;5110293;27;20062;-55
2023/02/21 13:07:03;;;;;;;30.20;21.08;;;16.20;1.00;;;;;;5113535;28;20077;-54
2023/02/21 13:09:35;;;;;;;28.05;20.60;;;15.90;1.00;;;;;;5111144;28;20059;-53
2023/02/21 13:12:03;;;;;;;33.38;21.85;;;16.00;1.00;;;;;;5113050;28;20030;-54
2023/02/21 13:14:44;;;;;;;30.52;21.90;;;16.10;1.00;;;;;;5107851;28;20460;-53
2023/02/21 13:17:13;;;;;;;29.80;22.60;;;16.00;1.00;;;;;;5100927;28;20035;-54
2023/02/21 13:33:24;;;;;;;26.98;21.58;;;16.20;1.00;;;;;;5107273;28;20096;-59
2023/02/21 13:35:50;;;;;;;31.98;23.52;;;16.20;1.00;;;;;;5111268;28;20088;-59
2023/02/21 13:38:18;;;;;;;30.95;23.25;;;16.20;1.00;;;;;;5110576;28;20031;-59
2023/02/21 13:40:51;;;;;;;32.15;22.60;;;16.30;1.00;;;;;;5108523;28;20024;-60
2023/02/21 13:43:27;;;;;;;31.75;20.83;;;16.30;1.00;;;;;;5111533;28;20110;-60
2023/02/21 13:45:53;;;;;;;24.92;19.92;;;16.20;1.00;;;;;;5109916;28;20476;-62
2023/02/21 13:48:24;;;;;;;27.98;21.38;;;16.30;1.00;;;;;;5093782;28;20016;-60
2023/02/21 13:50:53;;;;;;;29.08;21.10;;;16.20;1.00;;;;;;5108064;28;20063;-60
2023/02/21 13:53:32;;;;;;;31.20;22.70;;;16.20;1.00;;;;;;5112623;28;20123;-60
2023/02/21 13:56:06;;;;;;;28.67;19.95;;;16.20;1.00;;;;;;5112322;28;20118;-58
2023/02/21 13:58:32;;;;;;;32.47;21.65;;;16.20;1.00;;;;;;5112122;28;20027;-60
2023/02/21 14:01:15;;;;;;;30.92;22.58;;;16.20;1.00;;;;;;5112853;28;20030;-60
2023/02/21 14:03:40;;;;;;;29.42;21.85;;;16.20;1.00;;;;;;5111432;28;20027;-60
2023/02/21 14:06:09;;;;;;;28.27;21.75;;;16.20;1.00;;;;;;5112679;28;20023;-60
2023/02/21 14:08:42;;;;;;;32.55;21.45;;;16.20;1.00;;;;;;5109967;28;20134;-60
2023/02/21 14:11:11;;;;;;;30.63;22.63;;;16.20;1.00;;;;;;5111700;28;20020;-59
2023/02/21 14:14:02;;;;;;;28.30;20.60;;;16.30;1.00;;;;;;5112091;28;20027;-60
2023/02/21 14:16:47;;;;;;;30.13;20.35;;;16.20;1.00;;;;;;5109330;28;20027;-59
2023/02/21 14:19:39;;;;;;;30.92;20.55;;;16.30;1.00;;;;;;5110305;28;20084;-60
2023/02/21 14:22:25;;;;;;;28.75;20.77;;;16.20;1.00;;;;;;5098246;28;20023;-61
2023/02/21 14:25:07;;;;;;;30.60;21.33;;;16.20;1.00;;;;;;5110116;28;20423;-61
2023/02/21 14:27:36;;;;;;;25.80;20.13;;;16.20;1.00;;;;;;5112462;28;20055;-61
2023/02/21 14:30:11;;;;;;;30.45;21.30;;;16.20;1.00;;;;;;5108671;28;20032;-61
2023/02/21 14:32:42;;;;;;;29.35;21.70;;;16.30;1.00;;;;;;5111429;28;20031;-60
2023/02/21 14:35:19;;;;;;;26.70;20.05;;;16.40;1.00;;;;;;5111145;28;20020;-60
2023/02/21 14:37:58;;;;;;;27.98;20.70;;;16.50;1.00;;;;;;5096952;28;20126;-60
2023/02/21 14:40:45;;;;;;;30.98;19.92;;;16.50;1.00;;;;;;5111150;28;20080;-61
2023/02/21 14:43:23;;;;;;;29.52;21.88;;;16.50;1.00;;;;;;5112089;28;20488;-61
2023/02/21 14:46:25;;;;;;;31.33;21.83;;;16.40;1.00;;;;;;5106622;28;20126;-62
2023/02/21 14:49:16;;;;;;;34.05;22.25;;;16.20;1.00;;;;;;5111190;28;20035;-62
2023/02/21 14:52:22;;;;;;;36.28;23.50;;;16.20;1.00;;;;;;5101073;28;20060;-61
2023/02/21 14:54:47;;;;;;;31.85;22.73;;;16.30;1.00;;;;;;5107558;28;20449;-61
2023/02/21 14:57:19;;;;;;;31.90;23.92;;;16.40;1.00;;;;;;5112088;28;20077;-62
2023/02/21 14:59:50;;;;;;;30.80;23.23;;;16.30;1.00;;;;;;5108191;28;20508;-61
2023/02/21 15:02:16;;;;;;;34.50;24.42;;;16.30;1.00;;;;;;5112299;28;20084;-62
2023/02/21 15:04:50;;;;;;;31.27;23.60;;;16.40;1.00;;;;;;5110917;28;20031;-62
2023/02/21 15:07:24;;;;;;;33.72;24.05;;;16.30;1.00;;;;;;5115883;28;20028;-60
2023/02/21 15:10:09;;;;;;;;;;;16.60;1.00;;;;;;5115406;28;20122;-62
2023/02/21 15:12:41;;;;;;;32.80;22.60;;;16.70;1.00;;;;;;5115925;28;19904;-62
2023/02/21 15:15:15;;;;;;;31.35;23.92;;;16.60;1.00;;;;;;5106990;28;20027;-62
2023/02/21 15:17:41;;;;;;;35.47;24.52;;;16.40;1.00;;;;;;5102512;28;20032;-62
2023/02/21 15:20:17;;;;;;;32.95;24.17;;;16.40;1.00;;;;;;5107552;28;20027;-62
2023/02/21 15:22:42;;;;;;;30.95;23.42;;;16.40;1.00;;;;;;5115968;28;20057;-63
2023/02/21 15:25:08;;;;;;;34.92;24.52;;;16.50;1.00;;;;;;5114495;28;20383;-62
2023/02/21 15:27:35;;;;;;;33.03;24.90;;;16.50;1.00;;;;;;5114204;28;20118;-59
2023/02/21 15:30:07;;;;;;;33.35;25.08;;;16.60;1.00;;;;;;5112428;28;20028;-60
2023/02/21 15:32:35;;;;;;;35.58;26.17;;;16.50;1.00;;;;;;5101974;28;20035;-60
2023/02/21 15:35:05;;;;;;;34.10;26.20;;;16.40;1.00;;;;;;5113116;28;20035;-58
2023/02/21 15:37:32;;;;;;;34.22;25.95;;;16.40;1.00;;;;;;5111612;28;20039;-59
2023/02/21 15:40:10;;;;;;;36.63;26.58;;;16.40;1.00;;;;;;5113227;28;20024;-59
2023/02/21 15:42:38;;;;;;;35.42;26.02;;;16.30;1.00;;;;;;5107781;28;20016;-59
2023/02/21 15:45:19;;;;;;;36.10;25.80;;;16.20;1.00;;;;;;5108377;28;20038;-60